sensor_id;sensor_type;location;lat;lon;timestamp;temperature;humidity
25200;DHT22;33094;48.782;9.162;2023-02-28T03:44:00;-0.50;99.90
25200;DHT22;33094;48.782;9.162;2023-02-28T03:46:31;-0.20;99.90
25200;DHT22;33094;48.782;9.162;2023-02-28T03:49:03;-0.80;99.90
25200;DHT22;33094;48.782;9.162;2023-02-28T03:51:32;1.80;99.90
25200;DHT22;33094;48.782;9.162;2023-02-28T03:54:04;-1.20;99.90
25200;DHT22;33094;48.782;9.162;2023-02-28T03:56:56;1.00;99.90
25200;DHT22;33094;48.782;9.162;2023-02-28T03:59:34;1.20;99.90
25200;DHT22;33094;48.782;9.162;2023-02-28T04:02:02;-0.50;99.90
25200;DHT22;33094;48.782;9.162;2023-02-28T04:04:28;0.90;99.90
25200;DHT22;33094;48.782;9.162;2023-02-28T04:07:03;1.40;99.90
25200;DHT22;33094;48.782;9.162;2023-02-28T04:09:29;0.80;99.90
25200;DHT22;33094;48.782;9.162;2023-02-28T04:11:55;1.20;99.90
25200;DHT22;33094;48.782;9.162;2023-02-28T04:14:23;0.80;99.90
25200;DHT22;33094;48.782;9.162;2023-02-28T04:16:49;0.90;99.90
25200;DHT22;33094;48.782;9.162;2023-02-28T04:19:16;2.10;99.90
25200;DHT22;33094;48.782;9.162;2023-02-28T04:21:48;1.90;99.90
25200;DHT22;33094;48.782;9.162;2023-02-28T04:24:17;0.80;99.90
25200;DHT22;33094;48.782;9.162;2023-02-28T04:26:46;2.40;99.90
25200;DHT22;33094;48.782;9.162;2023-02-28T04:29:13;-2.30;99.90
25200;DHT22;33094;48.782;9.162;2023-02-28T04:31:39;1.80;99.90
25200;DHT22;33094;48.782;9.162;2023-02-28T04:34:06;-0.30;99.90
25200;DHT22;33094;48.782;9.162;2023-02-28T04:36:31;1.60;99.90
25200;DHT22;33094;48.782;9.162;2023-02-28T04:38:57;1.60;99.90
25200;DHT22;33094;48.782;9.162;2023-02-28T04:41:23;-0.70;99.90
25200;DHT22;33094;48.782;9.162;2023-02-28T04:43:50;0.50;99.90
25200;DHT22;33094;48.782;9.162;2023-02-28T04:46:16;2.10;99.90
25200;DHT22;33094;48.782;9.162;2023-02-28T04:48:43;1.10;99.90
25200;DHT22;33094;48.782;9.162;2023-02-28T04:51:12;1.20;99.90
25200;DHT22;33094;48.782;9.162;2023-02-28T04:53:40;0.30;99.90
25200;DHT22;33094;48.782;9.162;2023-02-28T04:56:07;1.00;99.90
25200;DHT22;33094;48.782;9.162;2023-02-28T04:58:34;-0.10;99.90
25200;DHT22;33094;48.782;9.162;2023-02-28T05:01:24;-0.90;99.90
25200;DHT22;33094;48.782;9.162;2023-02-28T05:03:50;-0.20;99.90
25200;DHT22;33094;48.782;9.162;2023-02-28T05:06:17;2.30;99.90
25200;DHT22;33094;48.782;9.162;2023-02-28T05:08:43;-2.30;99.90
25200;DHT22;33094;48.782;9.162;2023-02-28T05:11:34;-0.80;99.90
25200;DHT22;33094;48.782;9.162;2023-02-28T05:14:02;1.40;99.90
25200;DHT22;33094;48.782;9.162;2023-02-28T05:16:28;-1.00;99.90
25200;DHT22;33094;48.782;9.162;2023-02-28T05:18:54;0.70;99.90
25200;DHT22;33094;48.782;9.162;2023-02-28T05:21:31;1.90;99.90
25200;DHT22;33094;48.782;9.162;2023-02-28T05:23:59;1.90;99.90
25200;DHT22;33094;48.782;9.162;2023-02-28T05:26:26;0.90;99.90
25200;DHT22;33094;48.782;9.162;2023-02-28T05:28:53;-0.80;99.90
25200;DHT22;33094;48.782;9.162;2023-02-28T05:31:19;-0.80;99.90
25200;DHT22;33094;48.782;9.162;2023-02-28T05:33:44;-0.80;99.90
25200;DHT22;33094;48.782;9.162;2023-02-28T05:36:10;1.20;99.90
25200;DHT22;33094;48.782;9.162;2023-02-28T05:38:36;-0.10;99.90
25200;DHT22;33094;48.782;9.162;2023-02-28T05:41:08;-0.50;99.90
25200;DHT22;33094;48.782;9.162;2023-02-28T05:43:35;0.00;99.90
25200;DHT22;33094;48.782;9.162;2023-02-28T05:46:06;-0.40;99.90
25200;DHT22;33094;48.782;9.162;2023-02-28T05:48:37;0.00;99.90
25200;DHT22;33094;48.782;9.162;2023-02-28T05:51:04;2.10;99.90
25200;DHT22;33094;48.782;9.162;2023-02-28T05:53:31;-0.30;99.90
25200;DHT22;33094;48.782;9.162;2023-02-28T05:55:57;1.90;99.90
25200;DHT22;33094;48.782;9.162;2023-02-28T05:58:23;2.00;99.90
25200;DHT22;33094;48.782;9.162;2023-02-28T06:00:51;0.80;99.90
25200;DHT22;33094;48.782;9.162;2023-02-28T06:03:16;0.30;99.90
25200;DHT22;33094;48.782;9.162;2023-02-28T06:05:42;1.40;99.90
25200;DHT22;33094;48.782;9.162;2023-02-28T06:08:10;-0.20;99.90
25200;DHT22;33094;48.782;9.162;2023-02-28T06:10:35;1.70;99.90
25200;DHT22;33094;48.782;9.162;2023-02-28T06:13:02;0.90;99.90
25200;DHT22;33094;48.782;9.162;2023-02-28T06:15:29;1.30;99.90
25200;DHT22;33094;48.782;9.162;2023-02-28T06:17:55;2.20;99.90
25200;DHT22;33094;48.782;9.162;2023-02-28T06:20:23;-0.70;99.90
25200;DHT22;33094;48.782;9.162;2023-02-28T06:22:49;-0.20;99.90
25200;DHT22;33094;48.782;9.162;2023-02-28T06:25:17;-0.50;99.90
25200;DHT22;33094;48.782;9.162;2023-02-28T06:27:43;-0.10;99.90
25200;DHT22;33094;48.782;9.162;2023-02-28T06:30:10;-0.90;99.90
25200;DHT22;33094;48.782;9.162;2023-02-28T06:32:36;-0.20;99.90
25200;DHT22;33094;48.782;9.162;2023-02-28T06:35:02;-0.20;99.90
25200;DHT22;33094;48.782;9.162;2023-02-28T06:37:28;-0.20;99.90
25200;DHT22;33094;48.782;9.162;2023-02-28T06:39:54;-0.30;99.90
25200;DHT22;33094;48.782;9.162;2023-02-28T06:42:22;0.10;99.90
25200;DHT22;33094;48.782;9.162;2023-02-28T06:44:50;1.50;99.90
25200;DHT22;33094;48.782;9.162;2023-02-28T06:47:16;1.70;99.90
25200;DHT22;33094;48.782;9.162;2023-02-28T06:49:42;0.00;99.90
25200;DHT22;33094;48.782;9.162;2023-02-28T06:52:10;1.70;99.90
25200;DHT22;33094;48.782;9.162;2023-02-28T06:54:36;2.00;99.90
25200;DHT22;33094;48.782;9.162;2023-02-28T06:57:03;1.50;99.90
25200;DHT22;33094;48.782;9.162;2023-02-28T06:59:28;2.00;99.90
25200;DHT22;33094;48.782;9.162;2023-02-28T07:01:54;1.00;99.90
25200;DHT22;33094;48.782;9.162;2023-02-28T07:04:21;1.10;99.90
25200;DHT22;33094;48.782;9.162;2023-02-28T07:06:46;2.10;99.90
25200;DHT22;33094;48.782;9.162;2023-02-28T07:09:12;2.70;99.90
25200;DHT22;33094;48.782;9.162;2023-02-28T07:11:39;2.20;99.90
25200;DHT22;33094;48.782;9.162;2023-02-28T07:14:06;1.70;99.90
25200;DHT22;33094;48.782;9.162;2023-02-28T07:16:31;-0.10;99.90
25200;DHT22;33094;48.782;9.162;2023-02-28T07:18:57;1.60;99.90
25200;DHT22;33094;48.782;9.162;2023-02-28T07:21:23;-0.40;99.90
25200;DHT22;33094;48.782;9.162;2023-02-28T07:23:49;2.00;99.90
25200;DHT22;33094;48.782;9.162;2023-02-28T07:26:17;-2.60;99.90
25200;DHT22;33094;48.782;9.162;2023-02-28T07:28:45;1.90;99.90
25200;DHT22;33094;48.782;9.162;2023-02-28T07:31:11;2.90;99.90
25200;DHT22;33094;48.782;9.162;2023-02-28T07:33:39;-0.20;99.90
25200;DHT22;33094;48.782;9.162;2023-02-28T07:36:08;2.40;99.90
25200;DHT22;33094;48.782;9.162;2023-02-28T07:38:37;0.60;99.90
25200;DHT22;33094;48.782;9.162;2023-02-28T07:41:03;1.90;99.90
25200;DHT22;33094;48.782;9.162;2023-02-28T07:43:30;0.40;99.90
25200;DHT22;33094;48.782;9.162;2023-02-28T07:46:04;2.60;99.90
25200;DHT22;33094;48.782;9.162;2023-02-28T07:48:31;0.50;99.90
25200;DHT22;33094;48.782;9.162;2023-02-28T07:50:57;0.30;99.90
25200;DHT22;33094;48.782;9.162;2023-02-28T07:53:23;0.50;99.90
25200;DHT22;33094;48.782;9.162;2023-02-28T07:55:48;0.40;99.90
25200;DHT22;33094;48.782;9.162;2023-02-28T07:58:14;0.60;99.90
25200;DHT22;33094;48.782;9.162;2023-02-28T08:00:40;0.50;99.90
25200;DHT22;33094;48.782;9.162;2023-02-28T08:03:06;3.20;99.90
25200;DHT22;33094;48.782;9.162;2023-02-28T08:05:32;2.50;99.90
25200;DHT22;33094;48.782;9.162;2023-02-28T08:07:58;2.10;99.90
25200;DHT22;33094;48.782;9.162;2023-02-28T08:10:23;0.70;99.90
25200;DHT22;33094;48.782;9.162;2023-02-28T08:12:50;0.70;99.90
25200;DHT22;33094;48.782;9.162;2023-02-28T08:15:18;0.70;99.90
25200;DHT22;33094;48.782;9.162;2023-02-28T08:20:43;0.90;99.90
25200;DHT22;33094;48.782;9.162;2023-02-28T08:23:16;1.10;99.90
25200;DHT22;33094;48.782;9.162;2023-02-28T08:25:53;0.70;99.90
25200;DHT22;33094;48.782;9.162;2023-02-28T08:28:19;3.30;99.90
25200;DHT22;33094;48.782;9.162;2023-02-28T08:31:11;0.40;99.90
25200;DHT22;33094;48.782;9.162;2023-02-28T08:33:45;1.00;99.90
25200;DHT22;33094;48.782;9.162;2023-02-28T08:40:15;0.00;99.90
25200;DHT22;33094;48.782;9.162;2023-02-28T09:05:10;1.00;99.90
25200;DHT22;33094;48.782;9.162;2023-02-28T09:08:12;1.10;99.90
25200;DHT22;33094;48.782;9.162;2023-02-28T09:14:31;3.60;99.90
25200;DHT22;33094;48.782;9.162;2023-02-28T09:17:00;1.20;99.90
25200;DHT22;33094;48.782;9.162;2023-02-28T09:19:53;3.40;99.90
25200;DHT22;33094;48.782;9.162;2023-02-28T09:22:19;1.90;99.90
25200;DHT22;33094;48.782;9.162;2023-02-28T09:24:46;3.00;99.90
25200;DHT22;33094;48.782;9.162;2023-02-28T09:27:12;1.00;99.90
25200;DHT22;33094;48.782;9.162;2023-02-28T09:29:38;3.20;99.90
25200;DHT22;33094;48.782;9.162;2023-02-28T09:32:04;3.70;99.90
25200;DHT22;33094;48.782;9.162;2023-02-28T09:34:31;1.70;99.90
25200;DHT22;33094;48.782;9.162;2023-02-28T09:36:57;3.00;99.90
25200;DHT22;33094;48.782;9.162;2023-02-28T09:39:23;3.80;99.90
25200;DHT22;33094;48.782;9.162;2023-02-28T09:41:51;3.10;99.90
25200;DHT22;33094;48.782;9.162;2023-02-28T09:44:44;1.70;99.90
25200;DHT22;33094;48.782;9.162;2023-02-28T09:47:32;3.30;99.90
25200;DHT22;33094;48.782;9.162;2023-02-28T09:50:07;2.80;99.90
25200;DHT22;33094;48.782;9.162;2023-02-28T09:52:37;1.60;99.90
25200;DHT22;33094;48.782;9.162;2023-02-28T09:55:22;3.30;99.90
25200;DHT22;33094;48.782;9.162;2023-02-28T09:57:51;1.70;99.90
25200;DHT22;33094;48.782;9.162;2023-02-28T10:00:18;2.30;99.90
25200;DHT22;33094;48.782;9.162;2023-02-28T10:09:43;1.10;99.90
25200;DHT22;33094;48.782;9.162;2023-02-28T10:30:32;1.90;99.90
25200;DHT22;33094;48.782;9.162;2023-02-28T11:14:31;6.30;99.90
25200;DHT22;33094;48.782;9.162;2023-02-28T11:17:19;7.60;99.90
25200;DHT22;33094;48.782;9.162;2023-02-28T11:19:48;7.70;99.90
25200;DHT22;33094;48.782;9.162;2023-02-28T11:22:24;9.20;99.90
25200;DHT22;33094;48.782;9.162;2023-02-28T11:24:56;7.40;99.90
25200;DHT22;33094;48.782;9.162;2023-02-28T11:29:58;8.00;99.90
25200;DHT22;33094;48.782;9.162;2023-02-28T11:32:26;8.80;99.50
25200;DHT22;33094;48.782;9.162;2023-02-28T11:37:35;9.00;98.50
25200;DHT22;33094;48.782;9.162;2023-02-28T11:40:01;7.70;98.40
25200;DHT22;33094;48.782;9.162;2023-02-28T11:51:01;9.60;99.10
25200;DHT22;33094;48.782;9.162;2023-02-28T11:59:04;7.50;99.20
25200;DHT22;33094;48.782;9.162;2023-02-28T12:01:58;7.30;99.10
25200;DHT22;33094;48.782;9.162;2023-02-28T12:10:29;6.90;99.50
25200;DHT22;33094;48.782;9.162;2023-02-28T12:13:16;7.00;99.80
25200;DHT22;33094;48.782;9.162;2023-02-28T12:20:55;6.50;99.20
25200;DHT22;33094;48.782;9.162;2023-02-28T12:29:19;7.80;98.80
25200;DHT22;33094;48.782;9.162;2023-02-28T12:32:07;7.80;98.70
25200;DHT22;33094;48.782;9.162;2023-02-28T12:34:41;8.60;98.10
25200;DHT22;33094;48.782;9.162;2023-02-28T12:37:23;8.80;97.90
25200;DHT22;33094;48.782;9.162;2023-02-28T12:39:55;8.30;98.00
25200;DHT22;33094;48.782;9.162;2023-02-28T12:42:36;9.70;97.90
25200;DHT22;33094;48.782;9.162;2023-02-28T12:45:17;8.50;97.90
25200;DHT22;33094;48.782;9.162;2023-02-28T12:47:44;11.20;98.00
25200;DHT22;33094;48.782;9.162;2023-02-28T12:50:12;9.30;97.50
25200;DHT22;33094;48.782;9.162;2023-02-28T12:53:38;9.90;98.50
25200;DHT22;33094;48.782;9.162;2023-02-28T12:58:43;8.90;97.30
25200;DHT22;33094;48.782;9.162;2023-02-28T13:06:45;8.40;97.10
25200;DHT22;33094;48.782;9.162;2023-02-28T13:09:18;9.40;97.80
25200;DHT22;33094;48.782;9.162;2023-02-28T13:11:46;8.30;97.80
25200;DHT22;33094;48.782;9.162;2023-02-28T13:14:29;8.50;97.70
25200;DHT22;33094;48.782;9.162;2023-02-28T13:17:01;9.10;97.40
25200;DHT22;33094;48.782;9.162;2023-02-28T13:19:31;8.60;97.30
25200;DHT22;33094;48.782;9.162;2023-02-28T13:21:58;8.30;97.50
25200;DHT22;33094;48.782;9.162;2023-02-28T13:24:50;9.00;97.30
25200;DHT22;33094;48.782;9.162;2023-02-28T13:27:35;8.70;97.60
25200;DHT22;33094;48.782;9.162;2023-02-28T13:30:02;10.30;98.50
25200;DHT22;33094;48.782;9.162;2023-02-28T13:32:46;8.00;97.70
25200;DHT22;33094;48.782;9.162;2023-02-28T13:35:37;8.50;97.60
25200;DHT22;33094;48.782;9.162;2023-02-28T13:38:16;8.40;97.50
25200;DHT22;33094;48.782;9.162;2023-02-28T13:40:42;7.80;97.70
25200;DHT22;33094;48.782;9.162;2023-02-28T13:43:08;7.50;98.30
25200;DHT22;33094;48.782;9.162;2023-02-28T13:45:34;8.10;97.90
25200;DHT22;33094;48.782;9.162;2023-02-28T13:48:17;7.00;98.40
25200;DHT22;33094;48.782;9.162;2023-02-28T13:50:44;6.60;98.70
25200;DHT22;33094;48.782;9.162;2023-02-28T13:58:26;6.70;99.30
25200;DHT22;33094;48.782;9.162;2023-02-28T14:03:57;6.50;98.90
25200;DHT22;33094;48.782;9.162;2023-02-28T14:06:29;8.70;99.90
25200;DHT22;33094;48.782;9.162;2023-02-28T14:09:03;8.70;99.90
25200;DHT22;33094;48.782;9.162;2023-02-28T14:11:34;6.40;99.20
25200;DHT22;33094;48.782;9.162;2023-02-28T14:14:00;6.60;99.50
25200;DHT22;33094;48.782;9.162;2023-02-28T14:16:44;9.40;99.90
25200;DHT22;33094;48.782;9.162;2023-02-28T14:19:24;6.50;99.30
25200;DHT22;33094;48.782;9.162;2023-02-28T14:36:00;6.40;99.20
25200;DHT22;33094;48.782;9.162;2023-02-28T14:38:39;6.40;99.40
25200;DHT22;33094;48.782;9.162;2023-02-28T14:41:16;6.40;99.30
25200;DHT22;33094;48.782;9.162;2023-02-28T14:46:51;6.40;99.40
25200;DHT22;33094;48.782;9.162;2023-02-28T14:49:30;6.40;99.50
25200;DHT22;33094;48.782;9.162;2023-02-28T14:52:22;6.30;99.30
25200;DHT22;33094;48.782;9.162;2023-02-28T14:54:53;6.30;99.40
25200;DHT22;33094;48.782;9.162;2023-02-28T14:57:28;6.50;99.50
25200;DHT22;33094;48.782;9.162;2023-02-28T15:02:38;6.20;99.60
25200;DHT22;33094;48.782;9.162;2023-02-28T15:05:26;6.20;99.50
25200;DHT22;33094;48.782;9.162;2023-02-28T15:08:11;6.20;99.70
25200;DHT22;33094;48.782;9.162;2023-02-28T15:10:38;6.40;99.80
25200;DHT22;33094;48.782;9.162;2023-02-28T15:13:07;6.40;99.50
25200;DHT22;33094;48.782;9.162;2023-02-28T15:21:22;6.40;99.70
25200;DHT22;33094;48.782;9.162;2023-02-28T15:23:53;6.40;99.70
25200;DHT22;33094;48.782;9.162;2023-02-28T15:26:23;6.40;99.80
25200;DHT22;33094;48.782;9.162;2023-02-28T15:29:10;6.90;99.90
25200;DHT22;33094;48.782;9.162;2023-02-28T15:31:43;6.10;99.90
25200;DHT22;33094;48.782;9.162;2023-02-28T15:36:52;6.00;99.90
25200;DHT22;33094;48.782;9.162;2023-02-28T15:39:23;6.10;99.90
25200;DHT22;33094;48.782;9.162;2023-02-28T15:41:49;8.40;99.90
25200;DHT22;33094;48.782;9.162;2023-02-28T15:44:22;8.00;99.90
25200;DHT22;33094;48.782;9.162;2023-02-28T15:47:03;6.00;99.90
25200;DHT22;33094;48.782;9.162;2023-02-28T15:49:54;4.00;99.90
25200;DHT22;33094;48.782;9.162;2023-02-28T15:52:37;5.90;99.90
25200;DHT22;33094;48.782;9.162;2023-02-28T15:55:27;5.90;99.90
25200;DHT22;33094;48.782;9.162;2023-02-28T15:57:56;5.90;99.90
25200;DHT22;33094;48.782;9.162;2023-02-28T16:00:25;5.90;99.90
25200;DHT22;33094;48.782;9.162;2023-02-28T16:02:51;5.80;99.90
25200;DHT22;33094;48.782;9.162;2023-02-28T16:05:29;7.80;99.90
25200;DHT22;33094;48.782;9.162;2023-02-28T16:08:00;5.60;99.90
25200;DHT22;33094;48.782;9.162;2023-02-28T16:10:27;6.60;99.90
25200;DHT22;33094;48.782;9.162;2023-02-28T16:12:55;7.80;99.90
25200;DHT22;33094;48.782;9.162;2023-02-28T16:15:27;5.50;99.90
25200;DHT22;33094;48.782;9.162;2023-02-28T16:17:54;7.80;99.90
25200;DHT22;33094;48.782;9.162;2023-02-28T16:20:24;6.80;99.90
25200;DHT22;33094;48.782;9.162;2023-02-28T16:22:50;5.40;99.90
25200;DHT22;33094;48.782;9.162;2023-02-28T16:25:19;7.10;99.90
25200;DHT22;33094;48.782;9.162;2023-02-28T16:27:50;7.20;99.90
25200;DHT22;33094;48.782;9.162;2023-02-28T16:30:24;5.40;99.90
25200;DHT22;33094;48.782;9.162;2023-02-28T16:32:50;7.70;99.90
25200;DHT22;33094;48.782;9.162;2023-02-28T16:35:17;5.30;99.90
25200;DHT22;33094;48.782;9.162;2023-02-28T16:37:44;6.90;99.90
25200;DHT22;33094;48.782;9.162;2023-02-28T16:40:18;5.20;99.90
25200;DHT22;33094;48.782;9.162;2023-02-28T16:42:47;5.20;99.90
25200;DHT22;33094;48.782;9.162;2023-02-28T16:45:20;5.10;99.90
25200;DHT22;33094;48.782;9.162;2023-02-28T16:47:46;5.00;99.90
25200;DHT22;33094;48.782;9.162;2023-02-28T16:50:20;5.00;99.90
25200;DHT22;33094;48.782;9.162;2023-02-28T16:52:46;5.00;99.90
25200;DHT22;33094;48.782;9.162;2023-02-28T16:55:13;4.80;99.90
25200;DHT22;33094;48.782;9.162;2023-02-28T16:57:39;4.80;99.90
25200;DHT22;33094;48.782;9.162;2023-02-28T17:00:07;4.90;99.90
25200;DHT22;33094;48.782;9.162;2023-02-28T17:02:33;4.70;99.90
25200;DHT22;33094;48.782;9.162;2023-02-28T17:04:59;4.70;99.90
25200;DHT22;33094;48.782;9.162;2023-02-28T17:07:24;4.60;99.90
25200;DHT22;33094;48.782;9.162;2023-02-28T17:09:50;4.60;99.90
25200;DHT22;33094;48.782;9.162;2023-02-28T17:12:16;7.00;99.90
25200;DHT22;33094;48.782;9.162;2023-02-28T21:57:36;1.30;99.90
